Time;durP1;ratioP1;P1;durP2;ratioP2;P2;SDS_P1;SDS_P2;PMS_P1;PMS_P2;Temp;Humidity;BMP_temperature;BMP_pressure;BME280_temperature;BME280_humidity;BME280_pressure;Samples;Min_cycle;Max_cycle;Signal;HPM_P1;HPM_P2
2023/06/22 00:06:56;;;;;;;11.20;9.50;;;22.20;99.90;;;;;;20840372;28;20315;-73
2023/06/22 00:16:58;;;;;;;13.37;9.70;;;22.20;99.90;;;;;;20833732;28;20287;-63
2023/06/22 00:27:00;;;;;;;10.93;9.67;;;22.30;99.90;;;;;;20832317;28;20236;-71
2023/06/22 00:37:02;;;;;;;14.80;10.33;;;22.20;99.90;;;;;;20831475;28;20264;-70
2023/06/22 00:47:04;;;;;;;12.33;10.10;;;22.20;99.90;;;;;;20831219;28;20323;-66
2023/06/22 00:57:11;;;;;;;13.43;10.17;;;22.20;99.90;;;;;;20830319;28;20208;-70
2023/06/22 01:07:41;;;;;;;13.33;10.20;;;22.20;99.90;;;;;;20830037;28;20703;-72
2023/06/22 01:17:44;;;;;;;12.23;10.57;;;22.10;99.90;;;;;;20830070;28;20240;-68
2023/06/22 01:28:19;;;;;;;16.43;10.13;;;21.90;99.90;;;;;;20829078;28;20236;-72
2023/06/22 01:38:22;;;;;;;11.67;10.23;;;22.00;99.90;;;;;;20828867;28;20319;-64
2023/06/22 01:48:25;;;;;;;14.50;10.03;;;22.10;99.90;;;;;;20828955;28;20239;-63
2023/06/22 01:58:28;;;;;;;13.93;10.50;;;22.00;99.90;;;;;;20844040;28;20243;-70
2023/06/22 02:08:36;;;;;;;13.90;9.73;;;21.90;99.90;;;;;;20842793;28;20238;-62
2023/06/22 02:18:40;;;;;;;17.47;10.43;;;22.10;99.90;;;;;;20842106;28;20224;-62
2023/06/22 02:28:41;;;;;;;17.40;11.13;;;22.00;99.90;;;;;;20840409;28;20272;-72
2023/06/22 02:38:48;;;;;;;15.20;11.60;;;21.80;99.90;;;;;;20840674;28;20232;-63
2023/06/22 02:48:50;;;;;;;17.47;11.33;;;21.90;99.90;;;;;;20839991;28;20631;-73
2023/06/22 02:58:52;;;;;;;17.90;11.93;;;21.90;99.90;;;;;;20840201;28;20295;-74
2023/06/22 03:08:58;;;;;;;17.03;13.07;;;21.90;99.90;;;;;;20838387;28;20268;-64
2023/06/22 03:19:00;;;;;;;13.23;11.50;;;22.00;99.90;;;;;;20837656;28;20222;-63
2023/06/22 03:29:02;;;;;;;18.27;12.90;;;22.00;99.90;;;;;;20852393;28;20236;-66
2023/06/22 03:39:04;;;;;;;18.73;13.53;;;22.00;99.90;;;;;;20836038;28;20236;-64
2023/06/22 03:49:05;;;;;;;17.93;13.90;;;22.00;99.90;;;;;;20834866;28;20243;-69
2023/06/22 03:59:07;;;;;;;21.40;14.27;;;22.00;99.90;;;;;;20834720;28;20223;-72
2023/06/22 04:09:09;;;;;;;15.73;13.23;;;22.00;99.90;;;;;;20832825;28;20225;-72
2023/06/22 04:19:16;;;;;;;19.20;14.00;;;22.10;99.90;;;;;;20832997;28;20732;-63
2023/06/22 04:29:17;;;;;;;18.37;14.53;;;22.20;99.90;;;;;;20832273;28;20236;-62
2023/06/22 04:39:20;;;;;;;21.70;14.30;;;22.20;99.90;;;;;;20829976;28;20225;-69
2023/06/22 04:49:21;;;;;;;19.00;14.63;;;22.20;99.90;;;;;;20830636;28;20229;-62
2023/06/22 04:59:28;;;;;;;17.47;13.90;;;22.40;99.90;;;;;;20831674;28;20209;-70
2023/06/22 05:09:33;;;;;;;16.93;13.60;;;22.50;99.90;;;;;;20829660;28;20290;-71
2023/06/22 05:19:35;;;;;;;17.60;13.83;;;22.70;99.90;;;;;;20940162;28;20235;-67
2023/06/22 05:29:37;;;;;;;19.57;13.10;;;22.80;99.90;;;;;;20984892;28;20232;-70
2023/06/22 05:39:39;;;;;;;14.60;13.10;;;23.20;99.90;;;;;;20911063;28;20237;-72
2023/06/22 05:49:41;;;;;;;17.23;13.13;;;23.20;99.90;;;;;;20927958;28;20232;-69
2023/06/22 05:59:42;;;;;;;15.20;13.70;;;23.50;99.90;;;;;;20925006;28;20218;-73
2023/06/22 06:09:44;;;;;;;15.70;12.30;;;23.70;99.90;;;;;;20899039;28;20239;-69
2023/06/22 06:19:46;;;;;;;15.17;11.80;;;23.90;99.90;;;;;;20874625;28;20209;-71
2023/06/22 06:29:48;;;;;;;16.70;12.43;;;24.10;99.90;;;;;;20875322;28;20315;-71
2023/06/22 06:39:50;;;;;;;15.80;11.20;;;24.20;99.90;;;;;;20877852;28;20228;-69
2023/06/22 06:49:52;;;;;;;16.87;12.13;;;24.30;99.90;;;;;;20861581;28;20232;-73
2023/06/22 06:59:55;;;;;;;16.77;11.87;;;24.60;99.90;;;;;;20872656;28;20291;-69
2023/06/22 07:09:56;;;;;;;15.47;11.00;;;24.80;99.90;;;;;;20877971;28;20715;-71
2023/06/22 07:19:58;;;;;;;14.63;11.17;;;25.10;99.90;;;;;;20869482;28;20220;-69
2023/06/22 07:30:00;;;;;;;12.63;10.87;;;25.40;99.90;;;;;;20871774;28;20240;-69
2023/06/22 07:40:06;;;;;;;15.97;10.60;;;25.50;99.90;;;;;;20882261;28;20742;-68
2023/06/22 07:50:08;;;;;;;13.47;10.30;;;25.70;99.50;;;;;;20868521;28;20703;-68
2023/06/22 08:00:14;;;;;;;13.00;9.60;;;26.00;98.70;;;;;;20869103;28;20663;-66
2023/06/22 08:10:17;;;;;;;12.50;10.27;;;26.30;98.00;;;;;;20871883;28;20244;-74
2023/06/22 08:20:18;;;;;;;14.33;9.60;;;26.50;97.10;;;;;;20849200;28;20554;-73
2023/06/22 08:30:20;;;;;;;10.57;9.50;;;26.70;96.60;;;;;;20873630;28;20270;-70
2023/06/22 08:40:22;;;;;;;11.57;9.50;;;26.70;95.80;;;;;;20869575;28;20589;-70
2023/06/22 08:50:24;;;;;;;11.13;8.90;;;27.00;95.30;;;;;;20865477;28;20232;-71
2023/06/22 09:00:26;;;;;;;16.73;8.50;;;27.30;94.70;;;;;;20864878;28;20568;-73
2023/06/22 09:10:28;;;;;;;22.83;7.73;;;27.40;93.90;;;;;;20867260;28;20572;-71
2023/06/22 09:20:31;;;;;;;11.17;7.60;;;27.60;92.40;;;;;;20870921;28;20203;-72
2023/06/22 09:30:33;;;;;;;7.60;6.35;;;27.80;91.20;;;;;;20864219;28;20235;-71
2023/06/22 09:40:39;;;;;;;12.35;7.18;;;28.00;90.20;;;;;;20865888;28;20599;-74
2023/06/22 09:50:41;;;;;;;8.48;6.80;;;28.20;88.70;;;;;;20863342;28;20753;-70
2023/06/22 10:00:43;;;;;;;8.52;6.25;;;28.40;86.90;;;;;;20863247;28;20205;-69
2023/06/22 10:10:44;;;;;;;8.77;6.20;;;28.60;85.20;;;;;;20868191;28;20239;-68
2023/06/22 10:20:53;;;;;;;11.70;8.18;;;28.80;83.30;;;;;;20877327;28;20304;-71
2023/06/22 10:30:55;;;;;;;7.45;5.88;;;28.80;82.00;;;;;;20887309;28;20593;-73
2023/06/22 10:40:57;;;;;;;7.80;6.00;;;29.10;79.60;;;;;;20876601;28;20225;-72
2023/06/22 10:51:00;;;;;;;7.03;5.65;;;29.10;78.90;;;;;;20878806;28;20683;-72
2023/06/22 11:01:03;;;;;;;9.25;5.65;;;29.30;77.60;;;;;;20876614;28;20213;-69
2023/06/22 11:11:04;;;;;;;7.72;4.80;;;29.40;75.70;;;;;;20878653;28;20232;-70
2023/06/22 11:21:06;;;;;;;9.25;5.57;;;29.60;74.30;;;;;;20883142;28;20239;-68
2023/06/22 11:31:08;;;;;;;16.92;5.43;;;30.10;71.90;;;;;;20870042;28;20327;-73
2023/06/22 11:41:27;;;;;;;8.82;5.60;;;30.60;69.10;;;;;;20872958;28;20275;-70
2023/06/22 11:51:31;;;;;;;7.22;4.60;;;30.70;67.90;;;;;;20877619;28;20271;-66
2023/06/22 12:01:33;;;;;;;12.77;4.95;;;30.80;66.50;;;;;;20867483;28;20274;-71
2023/06/22 12:11:35;;;;;;;16.50;5.72;;;31.30;65.00;;;;;;20871357;28;20239;-68
2023/06/22 12:21:37;;;;;;;12.02;4.50;;;31.70;63.30;;;;;;20858761;28;20209;-68
2023/06/22 12:31:39;;;;;;;17.88;5.40;;;31.70;62.40;;;;;;20831500;28;20232;-70
2023/06/22 12:41:41;;;;;;;14.95;5.50;;;31.80;61.50;;;;;;20829844;28;20236;-67
2023/06/22 12:51:44;;;;;;;8.50;5.20;;;32.00;60.50;;;;;;20835669;28;20234;-72
2023/06/22 13:01:46;;;;;;;17.00;5.65;;;31.80;60.70;;;;;;20949467;28;20199;-70
2023/06/22 13:11:48;;;;;;;12.45;5.38;;;31.00;62.60;;;;;;20965182;28;20231;-71
2023/06/22 13:21:50;;;;;;;9.02;5.13;;;30.50;64.50;;;;;;20903213;28;20208;-76
2023/06/22 13:31:52;;;;;;;10.73;6.07;;;30.40;64.80;;;;;;20901552;28;20232;-72
2023/06/22 13:41:53;;;;;;;9.23;5.45;;;30.20;65.00;;;;;;20911021;28;20267;-70
2023/06/22 13:51:55;;;;;;;15.88;5.30;;;30.10;65.50;;;;;;20923215;28;20235;-70
2023/06/22 14:01:57;;;;;;;11.35;5.25;;;30.30;65.80;;;;;;20947809;28;20234;-69
2023/06/22 14:12:03;;;;;;;15.80;5.68;;;30.30;65.80;;;;;;21007818;28;20231;-65
2023/06/22 14:22:05;;;;;;;24.63;6.05;;;30.30;66.60;;;;;;21005205;28;20611;-69
2023/06/22 14:32:08;;;;;;;13.30;5.47;;;30.10;67.40;;;;;;21003402;28;20656;-69
2023/06/22 14:42:10;;;;;;;10.82;5.28;;;31.20;66.00;;;;;;21005295;28;20280;-68
2023/06/22 14:52:11;;;;;;;12.85;5.18;;;32.30;63.80;;;;;;21004451;28;20235;-67
2023/06/22 15:02:13;;;;;;;11.10;4.88;;;32.40;63.80;;;;;;20979312;28;20232;-68
2023/06/22 15:12:15;;;;;;;11.98;5.35;;;32.10;64.00;;;;;;20920188;28;20231;-70
2023/06/22 15:22:19;;;;;;;17.00;5.50;;;33.50;62.30;;;;;;20918006;28;20326;-74
2023/06/22 15:32:21;;;;;;;11.18;4.35;;;34.10;57.80;;;;;;20920547;28;20763;-74
2023/06/22 15:42:23;;;;;;;13.95;4.85;;;33.50;57.20;;;;;;20918153;28;20231;-68
2023/06/22 15:52:25;;;;;;;16.38;4.32;;;33.10;57.20;;;;;;20917514;28;20228;-70
2023/06/22 16:02:28;;;;;;;13.43;4.38;;;33.00;56.10;;;;;;20911571;28;20208;-71
2023/06/22 16:12:31;;;;;;;11.63;4.32;;;32.00;56.70;;;;;;20912391;28;20289;-71
2023/06/22 16:22:33;;;;;;;12.50;3.88;;;31.30;57.00;;;;;;20912504;28;20200;-71
2023/06/22 16:32:35;;;;;;;16.90;4.07;;;30.80;57.80;;;;;;20912503;28;20243;-67
2023/06/22 16:42:36;;;;;;;15.30;4.80;;;30.60;56.40;;;;;;20913430;28;20796;-66
2023/06/22 16:52:38;;;;;;;15.88;4.22;;;30.30;55.90;;;;;;20912800;28;20722;-73
2023/06/22 17:02:47;;;;;;;13.85;4.32;;;30.10;55.00;;;;;;20913011;28;20207;-69
2023/06/22 17:12:49;;;;;;;11.52;3.90;;;29.90;55.40;;;;;;20910032;28;20584;-70
2023/06/22 17:22:54;;;;;;;11.52;3.83;;;29.70;56.70;;;;;;20914870;28;20208;-68
2023/06/22 17:32:57;;;;;;;15.05;4.45;;;29.50;57.80;;;;;;20926067;28;20243;-69
2023/06/22 17:43:07;;;;;;;15.13;4.95;;;29.30;58.80;;;;;;20925509;28;20227;-69
2023/06/22 17:53:10;;;;;;;15.82;4.53;;;29.20;59.20;;;;;;20924462;28;20239;-68
2023/06/22 18:03:13;;;;;;;21.17;5.53;;;29.10;59.40;;;;;;20923707;28;20210;-69
2023/06/22 18:13:18;;;;;;;15.50;4.72;;;29.10;59.50;;;;;;20925792;28;20661;-71
2023/06/22 18:23:20;;;;;;;12.65;4.40;;;29.10;59.70;;;;;;20924927;28;20239;-66
2023/06/22 18:33:22;;;;;;;14.05;4.90;;;29.00;60.20;;;;;;20923876;28;20271;-70
2023/06/22 18:43:24;;;;;;;13.60;4.57;;;28.90;61.60;;;;;;20923226;28;20240;-66
2023/06/22 18:53:28;;;;;;;13.07;4.97;;;28.80;62.80;;;;;;20863701;28;20319;-62
2023/06/22 19:03:31;;;;;;;14.67;5.37;;;28.60;63.70;;;;;;20884475;28;20291;-62
2023/06/22 19:13:33;;;;;;;14.10;4.73;;;28.30;66.60;;;;;;20922235;28;20661;-69
2023/06/22 19:23:39;;;;;;;14.80;5.10;;;27.80;69.60;;;;;;20922786;28;20218;-64
2023/06/22 19:33:41;;;;;;;15.40;5.10;;;27.50;72.40;;;;;;20918573;28;20263;-66
2023/06/22 19:43:43;;;;;;;10.33;4.80;;;27.30;74.00;;;;;;20920072;28;20286;-61
2023/06/22 19:53:44;;;;;;;14.00;5.37;;;27.10;75.10;;;;;;20917548;28;20239;-61
2023/06/22 20:03:46;;;;;;;20.00;6.33;;;27.00;75.60;;;;;;20915587;28;20638;-66
2023/06/22 20:13:49;;;;;;;14.50;6.03;;;26.50;80.10;;;;;;20915203;28;20284;-61
2023/06/22 20:23:51;;;;;;;19.77;6.43;;;25.80;87.70;;;;;;20914094;28;20216;-61
2023/06/22 20:34:03;;;;;;;13.73;6.20;;;25.10;92.90;;;;;;20913626;28;20232;-62
2023/06/22 20:44:05;;;;;;;15.27;6.50;;;24.70;95.60;;;;;;20912921;28;20270;-60
2023/06/22 20:54:07;;;;;;;14.77;6.63;;;24.50;97.20;;;;;;20910983;28;20246;-60
2023/06/22 21:04:09;;;;;;;15.80;6.70;;;24.40;98.70;;;;;;20910377;28;20290;-60
2023/06/22 21:14:10;;;;;;;12.90;6.30;;;24.30;99.90;;;;;;20911841;28;20227;-59
2023/06/22 21:24:20;;;;;;;12.97;6.50;;;24.20;99.90;;;;;;20912019;28;20251;-60
2023/06/22 21:34:22;;;;;;;13.93;5.80;;;24.40;99.90;;;;;;20911495;28;20285;-61
2023/06/22 21:44:24;;;;;;;12.77;5.90;;;24.40;99.90;;;;;;20911396;28;20660;-69
2023/06/22 21:54:26;;;;;;;14.30;5.77;;;24.40;99.90;;;;;;20910985;28;20274;-67
2023/06/22 22:04:28;;;;;;;11.27;5.50;;;24.30;99.90;;;;;;20910493;28;20211;-67
2023/06/22 22:14:30;;;;;;;11.40;4.60;;;24.20;99.90;;;;;;20925157;28;20323;-62
2023/06/22 22:24:32;;;;;;;10.20;4.63;;;24.10;99.90;;;;;;20925106;28;20723;-65
2023/06/22 22:34:34;;;;;;;10.73;3.80;;;24.10;99.90;;;;;;20924495;28;20243;-68
2023/06/22 22:44:35;;;;;;;12.47;4.30;;;24.10;99.80;;;;;;20924927;28;20282;-73
2023/06/22 22:54:42;;;;;;;5.13;2.23;;;24.10;99.40;;;;;;20927645;28;20212;-66
2023/06/22 23:04:44;;;;;;;2.60;1.73;;;24.00;98.70;;;;;;20941679;28;20204;-65
2023/06/22 23:14:46;;;;;;;1.87;1.17;;;23.80;97.20;;;;;;20922849;28;20207;-66
2023/06/22 23:24:47;;;;;;;1.23;1.13;;;23.60;96.60;;;;;;20919393;28;20564;-72
2023/06/22 23:34:49;;;;;;;1.30;1.00;;;23.50;96.20;;;;;;20919382;28;20299;-70
2023/06/22 23:44:52;;;;;;;2.50;1.00;;;23.50;95.90;;;;;;20918422;28;20319;-65
2023/06/22 23:54:54;;;;;;;2.07;0.90;;;23.50;95.60;;;;;;20918429;28;20310;-60
